sensor_id;sensor_type;location;lat;lon;timestamp;temperature;humidity
14031;DHT22;7090;49.436;8.490;2023-04-06T00:02:04;2.30;1.00
14031;DHT22;7090;49.436;8.490;2023-04-06T00:04:30;2.20;1.00
14031;DHT22;7090;49.436;8.490;2023-04-06T00:06:55;2.20;1.00
14031;DHT22;7090;49.436;8.490;2023-04-06T00:09:21;2.10;22.10
14031;DHT22;7090;49.436;8.490;2023-04-06T00:11:47;2.10;99.90
14031;DHT22;7090;49.436;8.490;2023-04-06T00:14:13;2.00;1.00
14031;DHT22;7090;49.436;8.490;2023-04-06T00:16:39;1.90;99.90
14031;DHT22;7090;49.436;8.490;2023-04-06T00:19:04;1.90;99.90
14031;DHT22;7090;49.436;8.490;2023-04-06T00:21:30;2.10;1.00
14031;DHT22;7090;49.436;8.490;2023-04-06T00:23:56;2.10;1.00
14031;DHT22;7090;49.436;8.490;2023-04-06T00:26:23;2.00;1.00
14031;DHT22;7090;49.436;8.490;2023-04-06T00:28:48;1.90;1.00
14031;DHT22;7090;49.436;8.490;2023-04-06T00:31:17;1.80;1.00
14031;DHT22;7090;49.436;8.490;2023-04-06T00:33:42;1.80;1.00
14031;DHT22;7090;49.436;8.490;2023-04-06T00:36:08;1.70;99.90
14031;DHT22;7090;49.436;8.490;2023-04-06T00:38:34;1.60;99.90
14031;DHT22;7090;49.436;8.490;2023-04-06T00:40:59;1.70;99.90
14031;DHT22;7090;49.436;8.490;2023-04-06T00:43:25;1.70;99.90
14031;DHT22;7090;49.436;8.490;2023-04-06T00:45:51;1.70;99.90
14031;DHT22;7090;49.436;8.490;2023-04-06T00:48:16;1.70;99.90
14031;DHT22;7090;49.436;8.490;2023-04-06T00:50:42;1.70;99.90
14031;DHT22;7090;49.436;8.490;2023-04-06T00:53:08;1.70;99.90
14031;DHT22;7090;49.436;8.490;2023-04-06T00:55:33;1.60;99.90
14031;DHT22;7090;49.436;8.490;2023-04-06T00:58:02;1.60;99.90
14031;DHT22;7090;49.436;8.490;2023-04-06T01:00:27;1.40;99.90
14031;DHT22;7090;49.436;8.490;2023-04-06T01:02:53;1.50;99.90
14031;DHT22;7090;49.436;8.490;2023-04-06T01:05:19;1.50;99.90
14031;DHT22;7090;49.436;8.490;2023-04-06T01:07:45;1.50;99.90
14031;DHT22;7090;49.436;8.490;2023-04-06T01:10:11;1.50;99.90
14031;DHT22;7090;49.436;8.490;2023-04-06T01:12:36;1.50;99.90
14031;DHT22;7090;49.436;8.490;2023-04-06T01:15:04;1.50;99.90
14031;DHT22;7090;49.436;8.490;2023-04-06T01:17:31;1.40;99.90
14031;DHT22;7090;49.436;8.490;2023-04-06T01:19:56;1.20;99.90
14031;DHT22;7090;49.436;8.490;2023-04-06T01:22:24;1.20;99.90
14031;DHT22;7090;49.436;8.490;2023-04-06T01:24:49;1.20;99.90
14031;DHT22;7090;49.436;8.490;2023-04-06T01:27:15;1.40;99.90
14031;DHT22;7090;49.436;8.490;2023-04-06T01:29:40;1.40;99.90
14031;DHT22;7090;49.436;8.490;2023-04-06T01:32:07;1.50;99.90
14031;DHT22;7090;49.436;8.490;2023-04-06T01:34:33;1.50;99.90
14031;DHT22;7090;49.436;8.490;2023-04-06T01:36:58;1.50;99.90
14031;DHT22;7090;49.436;8.490;2023-04-06T01:39:25;1.50;99.90
14031;DHT22;7090;49.436;8.490;2023-04-06T01:41:51;1.40;99.90
14031;DHT22;7090;49.436;8.490;2023-04-06T01:44:17;1.30;99.90
14031;DHT22;7090;49.436;8.490;2023-04-06T01:46:44;1.30;99.90
14031;DHT22;7090;49.436;8.490;2023-04-06T01:49:09;1.30;99.90
14031;DHT22;7090;49.436;8.490;2023-04-06T01:51:35;1.10;99.90
14031;DHT22;7090;49.436;8.490;2023-04-06T01:54:01;1.00;99.90
14031;DHT22;7090;49.436;8.490;2023-04-06T01:56:26;1.20;99.90
14031;DHT22;7090;49.436;8.490;2023-04-06T01:58:52;1.20;99.90
14031;DHT22;7090;49.436;8.490;2023-04-06T02:01:18;1.20;99.90
14031;DHT22;7090;49.436;8.490;2023-04-06T02:03:43;1.20;99.90
14031;DHT22;7090;49.436;8.490;2023-04-06T02:06:09;1.20;99.90
14031;DHT22;7090;49.436;8.490;2023-04-06T02:08:34;1.10;99.90
14031;DHT22;7090;49.436;8.490;2023-04-06T02:11:00;1.00;99.90
14031;DHT22;7090;49.436;8.490;2023-04-06T02:13:26;1.00;99.90
14031;DHT22;7090;49.436;8.490;2023-04-06T02:15:52;1.00;99.90
14031;DHT22;7090;49.436;8.490;2023-04-06T02:18:17;0.80;99.90
14031;DHT22;7090;49.436;8.490;2023-04-06T02:20:44;0.80;99.90
14031;DHT22;7090;49.436;8.490;2023-04-06T02:23:10;0.90;99.90
14031;DHT22;7090;49.436;8.490;2023-04-06T02:25:35;0.90;99.90
14031;DHT22;7090;49.436;8.490;2023-04-06T02:28:01;0.90;99.90
14031;DHT22;7090;49.436;8.490;2023-04-06T02:30:27;0.80;99.90
14031;DHT22;7090;49.436;8.490;2023-04-06T02:32:54;0.60;99.90
14031;DHT22;7090;49.436;8.490;2023-04-06T02:35:20;0.40;99.90
14031;DHT22;7090;49.436;8.490;2023-04-06T02:37:45;0.40;99.90
14031;DHT22;7090;49.436;8.490;2023-04-06T02:40:11;0.50;99.90
14031;DHT22;7090;49.436;8.490;2023-04-06T02:42:37;0.70;99.90
14031;DHT22;7090;49.436;8.490;2023-04-06T02:45:02;0.80;99.90
14031;DHT22;7090;49.436;8.490;2023-04-06T02:47:28;0.80;99.90
14031;DHT22;7090;49.436;8.490;2023-04-06T02:49:54;0.80;99.90
14031;DHT22;7090;49.436;8.490;2023-04-06T02:52:19;0.90;99.90
14031;DHT22;7090;49.436;8.490;2023-04-06T02:54:45;0.90;99.90
14031;DHT22;7090;49.436;8.490;2023-04-06T02:57:10;0.90;99.90
14031;DHT22;7090;49.436;8.490;2023-04-06T02:59:36;0.70;99.90
14031;DHT22;7090;49.436;8.490;2023-04-06T03:02:02;0.70;99.90
14031;DHT22;7090;49.436;8.490;2023-04-06T03:04:27;0.70;99.90
14031;DHT22;7090;49.436;8.490;2023-04-06T03:06:54;0.60;99.90
14031;DHT22;7090;49.436;8.490;2023-04-06T03:09:20;0.50;99.90
14031;DHT22;7090;49.436;8.490;2023-04-06T03:11:46;0.50;99.90
14031;DHT22;7090;49.436;8.490;2023-04-06T03:14:12;0.60;99.90
14031;DHT22;7090;49.436;8.490;2023-04-06T03:16:37;0.70;99.90
14031;DHT22;7090;49.436;8.490;2023-04-06T03:19:03;0.60;99.90
14031;DHT22;7090;49.436;8.490;2023-04-06T03:21:28;0.60;99.90
14031;DHT22;7090;49.436;8.490;2023-04-06T03:23:54;0.60;99.90
14031;DHT22;7090;49.436;8.490;2023-04-06T03:26:20;0.50;99.90
14031;DHT22;7090;49.436;8.490;2023-04-06T03:28:47;0.40;99.90
14031;DHT22;7090;49.436;8.490;2023-04-06T03:31:13;0.50;99.90
14031;DHT22;7090;49.436;8.490;2023-04-06T03:33:38;0.40;99.90
14031;DHT22;7090;49.436;8.490;2023-04-06T03:36:04;0.50;99.90
14031;DHT22;7090;49.436;8.490;2023-04-06T03:38:30;0.50;99.90
14031;DHT22;7090;49.436;8.490;2023-04-06T03:40:56;0.50;99.90
14031;DHT22;7090;49.436;8.490;2023-04-06T03:43:21;0.50;99.90
14031;DHT22;7090;49.436;8.490;2023-04-06T03:45:47;0.50;99.90
14031;DHT22;7090;49.436;8.490;2023-04-06T03:48:13;0.40;99.90
14031;DHT22;7090;49.436;8.490;2023-04-06T03:50:38;0.20;99.90
14031;DHT22;7090;49.436;8.490;2023-04-06T03:53:04;0.10;99.90
14031;DHT22;7090;49.436;8.490;2023-04-06T03:55:30;0.00;99.90
14031;DHT22;7090;49.436;8.490;2023-04-06T03:57:55;0.20;99.90
14031;DHT22;7090;49.436;8.490;2023-04-06T04:00:21;0.30;99.90
14031;DHT22;7090;49.436;8.490;2023-04-06T04:02:47;0.50;99.90
14031;DHT22;7090;49.436;8.490;2023-04-06T04:05:12;0.70;99.90
14031;DHT22;7090;49.436;8.490;2023-04-06T04:07:38;0.70;99.90
14031;DHT22;7090;49.436;8.490;2023-04-06T04:10:04;0.80;99.90
14031;DHT22;7090;49.436;8.490;2023-04-06T04:12:30;0.90;99.90
14031;DHT22;7090;49.436;8.490;2023-04-06T04:14:55;0.90;99.90
14031;DHT22;7090;49.436;8.490;2023-04-06T04:17:21;0.90;99.90
14031;DHT22;7090;49.436;8.490;2023-04-06T04:19:47;0.90;99.90
14031;DHT22;7090;49.436;8.490;2023-04-06T04:22:12;0.90;99.90
14031;DHT22;7090;49.436;8.490;2023-04-06T04:24:38;0.90;99.90
14031;DHT22;7090;49.436;8.490;2023-04-06T04:27:04;0.90;99.90
14031;DHT22;7090;49.436;8.490;2023-04-06T04:29:30;1.00;99.90
14031;DHT22;7090;49.436;8.490;2023-04-06T04:31:56;1.00;99.90
14031;DHT22;7090;49.436;8.490;2023-04-06T04:34:22;1.10;99.90
14031;DHT22;7090;49.436;8.490;2023-04-06T04:36:50;1.10;99.90
14031;DHT22;7090;49.436;8.490;2023-04-06T04:39:16;1.20;99.90
14031;DHT22;7090;49.436;8.490;2023-04-06T04:41:42;1.20;99.90
14031;DHT22;7090;49.436;8.490;2023-04-06T04:44:07;1.20;79.50
14031;DHT22;7090;49.436;8.490;2023-04-06T04:46:33;1.20;53.90
14031;DHT22;7090;49.436;8.490;2023-04-06T04:48:58;1.30;10.90
14031;DHT22;7090;49.436;8.490;2023-04-06T04:51:24;1.30;1.00
14031;DHT22;7090;49.436;8.490;2023-04-06T04:53:50;1.40;1.00
14031;DHT22;7090;49.436;8.490;2023-04-06T04:56:16;1.50;1.00
14031;DHT22;7090;49.436;8.490;2023-04-06T04:58:41;1.50;1.00
14031;DHT22;7090;49.436;8.490;2023-04-06T05:01:08;1.50;1.00
14031;DHT22;7090;49.436;8.490;2023-04-06T05:03:33;1.50;1.00
14031;DHT22;7090;49.436;8.490;2023-04-06T05:05:59;1.30;1.00
14031;DHT22;7090;49.436;8.490;2023-04-06T05:08:25;1.60;1.00
14031;DHT22;7090;49.436;8.490;2023-04-06T05:10:50;1.60;1.00
14031;DHT22;7090;49.436;8.490;2023-04-06T05:16:47;1.70;1.00
14031;DHT22;7090;49.436;8.490;2023-04-06T05:19:13;2.10;1.00
14031;DHT22;7090;49.436;8.490;2023-04-06T05:21:39;2.30;1.00
14031;DHT22;7090;49.436;8.490;2023-04-06T05:24:04;2.50;1.00
14031;DHT22;7090;49.436;8.490;2023-04-06T05:26:30;2.70;1.00
14031;DHT22;7090;49.436;8.490;2023-04-06T05:28:56;2.90;1.00
14031;DHT22;7090;49.436;8.490;2023-04-06T05:31:22;3.00;1.00
14031;DHT22;7090;49.436;8.490;2023-04-06T05:33:47;3.20;1.00
14031;DHT22;7090;49.436;8.490;2023-04-06T05:36:13;3.30;1.00
14031;DHT22;7090;49.436;8.490;2023-04-06T05:38:38;3.30;99.90
14031;DHT22;7090;49.436;8.490;2023-04-06T05:41:04;3.50;99.90
14031;DHT22;7090;49.436;8.490;2023-04-06T05:43:30;3.60;1.00
14031;DHT22;7090;49.436;8.490;2023-04-06T05:45:55;3.90;1.00
14031;DHT22;7090;49.436;8.490;2023-04-06T05:48:21;4.20;1.00
14031;DHT22;7090;49.436;8.490;2023-04-06T05:50:49;4.40;99.90
14031;DHT22;7090;49.436;8.490;2023-04-06T05:53:21;4.50;99.90
14031;DHT22;7090;49.436;8.490;2023-04-06T05:55:47;4.70;99.90
14031;DHT22;7090;49.436;8.490;2023-04-06T05:58:12;5.00;1.00
14031;DHT22;7090;49.436;8.490;2023-04-06T06:00:38;5.50;99.90
14031;DHT22;7090;49.436;8.490;2023-04-06T06:03:04;5.70;1.00
14031;DHT22;7090;49.436;8.490;2023-04-06T06:05:31;5.70;1.00
14031;DHT22;7090;49.436;8.490;2023-04-06T06:07:57;5.70;7.30
14031;DHT22;7090;49.436;8.490;2023-04-06T06:10:22;5.80;1.00
14031;DHT22;7090;49.436;8.490;2023-04-06T06:12:48;5.90;1.00
14031;DHT22;7090;49.436;8.490;2023-04-06T06:15:14;6.10;1.00
14031;DHT22;7090;49.436;8.490;2023-04-06T06:17:39;5.90;1.00
14031;DHT22;7090;49.436;8.490;2023-04-06T06:20:08;5.80;1.00
14031;DHT22;7090;49.436;8.490;2023-04-06T06:22:34;5.70;1.00
14031;DHT22;7090;49.436;8.490;2023-04-06T06:24:59;5.60;1.00
14031;DHT22;7090;49.436;8.490;2023-04-06T06:27:25;5.40;1.00
14031;DHT22;7090;49.436;8.490;2023-04-06T06:29:51;5.20;1.00
14031;DHT22;7090;49.436;8.490;2023-04-06T06:32:17;5.30;1.00
14031;DHT22;7090;49.436;8.490;2023-04-06T06:34:43;5.50;99.90
14031;DHT22;7090;49.436;8.490;2023-04-06T06:37:09;5.60;99.90
14031;DHT22;7090;49.436;8.490;2023-04-06T06:39:35;6.00;1.00
14031;DHT22;7090;49.436;8.490;2023-04-06T06:42:00;6.10;1.00
14031;DHT22;7090;49.436;8.490;2023-04-06T06:44:27;6.20;1.00
14031;DHT22;7090;49.436;8.490;2023-04-06T06:46:53;6.20;99.90
14031;DHT22;7090;49.436;8.490;2023-04-06T06:49:19;6.10;1.00
14031;DHT22;7090;49.436;8.490;2023-04-06T06:51:45;6.00;99.90
14031;DHT22;7090;49.436;8.490;2023-04-06T06:54:12;5.70;99.90
14031;DHT22;7090;49.436;8.490;2023-04-06T06:56:38;5.80;99.90
14031;DHT22;7090;49.436;8.490;2023-04-06T06:59:05;6.10;1.00
14031;DHT22;7090;49.436;8.490;2023-04-06T07:01:32;6.10;1.00
14031;DHT22;7090;49.436;8.490;2023-04-06T07:03:58;6.40;1.00
14031;DHT22;7090;49.436;8.490;2023-04-06T07:06:24;6.40;1.00
14031;DHT22;7090;49.436;8.490;2023-04-06T07:08:50;6.50;99.90
14031;DHT22;7090;49.436;8.490;2023-04-06T07:11:16;6.60;99.90
14031;DHT22;7090;49.436;8.490;2023-04-06T07:13:42;6.80;99.90
14031;DHT22;7090;49.436;8.490;2023-04-06T07:16:08;6.90;1.00
14031;DHT22;7090;49.436;8.490;2023-04-06T07:18:34;7.00;1.00
14031;DHT22;7090;49.436;8.490;2023-04-06T07:20:59;6.90;1.00
14031;DHT22;7090;49.436;8.490;2023-04-06T07:23:25;7.00;99.90
14031;DHT22;7090;49.436;8.490;2023-04-06T07:25:51;7.30;99.90
14031;DHT22;7090;49.436;8.490;2023-04-06T07:28:17;7.30;99.90
14031;DHT22;7090;49.436;8.490;2023-04-06T07:30:43;7.20;99.90
14031;DHT22;7090;49.436;8.490;2023-04-06T07:33:09;7.00;99.90
14031;DHT22;7090;49.436;8.490;2023-04-06T07:35:34;7.40;99.90
14031;DHT22;7090;49.436;8.490;2023-04-06T07:38:02;7.70;99.90
14031;DHT22;7090;49.436;8.490;2023-04-06T07:40:27;7.60;20.90
14031;DHT22;7090;49.436;8.490;2023-04-06T07:42:53;7.60;1.00
14031;DHT22;7090;49.436;8.490;2023-04-06T07:45:19;7.10;1.00
14031;DHT22;7090;49.436;8.490;2023-04-06T07:47:45;6.90;88.80
14031;DHT22;7090;49.436;8.490;2023-04-06T07:50:11;7.10;95.50
14031;DHT22;7090;49.436;8.490;2023-04-06T07:52:38;7.60;99.90
14031;DHT22;7090;49.436;8.490;2023-04-06T07:55:04;7.60;38.80
14031;DHT22;7090;49.436;8.490;2023-04-06T07:57:30;7.50;65.00
14031;DHT22;7090;49.436;8.490;2023-04-06T07:59:56;7.80;91.90
14031;DHT22;7090;49.436;8.490;2023-04-06T08:02:21;7.70;69.70
14031;DHT22;7090;49.436;8.490;2023-04-06T08:04:47;7.70;25.80
14031;DHT22;7090;49.436;8.490;2023-04-06T08:07:13;8.10;99.90
14031;DHT22;7090;49.436;8.490;2023-04-06T08:09:39;7.60;47.40
14031;DHT22;7090;49.436;8.490;2023-04-06T08:12:04;8.00;52.20
14031;DHT22;7090;49.436;8.490;2023-04-06T08:14:30;8.00;99.90
14031;DHT22;7090;49.436;8.490;2023-04-06T08:16:56;7.60;47.40
14031;DHT22;7090;49.436;8.490;2023-04-06T08:19:21;7.70;90.60
14031;DHT22;7090;49.436;8.490;2023-04-06T08:21:47;8.30;99.90
14031;DHT22;7090;49.436;8.490;2023-04-06T08:24:14;8.60;99.90
14031;DHT22;7090;49.436;8.490;2023-04-06T08:26:40;8.20;99.90
14031;DHT22;7090;49.436;8.490;2023-04-06T08:29:05;8.40;99.90
14031;DHT22;7090;49.436;8.490;2023-04-06T08:31:34;8.90;1.00
14031;DHT22;7090;49.436;8.490;2023-04-06T08:34:00;8.50;1.00
14031;DHT22;7090;49.436;8.490;2023-04-06T08:36:26;8.70;1.00
14031;DHT22;7090;49.436;8.490;2023-04-06T08:38:52;8.80;1.00
14031;DHT22;7090;49.436;8.490;2023-04-06T08:41:18;8.60;1.00
14031;DHT22;7090;49.436;8.490;2023-04-06T08:43:50;9.20;1.00
14031;DHT22;7090;49.436;8.490;2023-04-06T08:46:17;9.50;1.00
14031;DHT22;7090;49.436;8.490;2023-04-06T08:48:43;9.40;1.00
14031;DHT22;7090;49.436;8.490;2023-04-06T08:51:09;9.10;1.00
14031;DHT22;7090;49.436;8.490;2023-04-06T08:53:36;8.90;1.00
14031;DHT22;7090;49.436;8.490;2023-04-06T08:56:02;9.00;1.00
14031;DHT22;7090;49.436;8.490;2023-04-06T08:58:32;9.30;1.00
14031;DHT22;7090;49.436;8.490;2023-04-06T09:00:59;9.90;1.00
14031;DHT22;7090;49.436;8.490;2023-04-06T09:03:27;10.50;1.00
14031;DHT22;7090;49.436;8.490;2023-04-06T09:05:53;10.60;1.00
14031;DHT22;7090;49.436;8.490;2023-04-06T09:08:19;10.00;1.00
14031;DHT22;7090;49.436;8.490;2023-04-06T09:10:45;10.30;1.00
14031;DHT22;7090;49.436;8.490;2023-04-06T09:13:11;10.70;1.00
14031;DHT22;7090;49.436;8.490;2023-04-06T09:15:37;9.80;1.00
14031;DHT22;7090;49.436;8.490;2023-04-06T09:18:03;10.50;1.00
14031;DHT22;7090;49.436;8.490;2023-04-06T09:20:28;10.50;1.00
14031;DHT22;7090;49.436;8.490;2023-04-06T09:22:54;10.90;1.00
14031;DHT22;7090;49.436;8.490;2023-04-06T09:25:22;10.70;1.00
14031;DHT22;7090;49.436;8.490;2023-04-06T09:27:57;11.00;1.00
14031;DHT22;7090;49.436;8.490;2023-04-06T09:30:23;10.70;1.00
14031;DHT22;7090;49.436;8.490;2023-04-06T09:32:52;10.70;1.00
14031;DHT22;7090;49.436;8.490;2023-04-06T09:35:18;10.50;1.00
14031;DHT22;7090;49.436;8.490;2023-04-06T09:37:48;10.90;1.00
14031;DHT22;7090;49.436;8.490;2023-04-06T09:40:14;11.10;1.00
14031;DHT22;7090;49.436;8.490;2023-04-06T09:42:45;11.80;99.90
14031;DHT22;7090;49.436;8.490;2023-04-06T09:45:16;11.60;99.90
14031;DHT22;7090;49.436;8.490;2023-04-06T09:47:44;11.60;99.90
14031;DHT22;7090;49.436;8.490;2023-04-06T09:50:12;11.20;99.90
14031;DHT22;7090;49.436;8.490;2023-04-06T09:52:50;12.10;99.90
14031;DHT22;7090;49.436;8.490;2023-04-06T09:55:36;12.40;99.90
14031;DHT22;7090;49.436;8.490;2023-04-06T09:58:07;12.30;99.90
14031;DHT22;7090;49.436;8.490;2023-04-06T10:00:48;11.70;99.90
14031;DHT22;7090;49.436;8.490;2023-04-06T10:06:20;12.40;99.90
14031;DHT22;7090;49.436;8.490;2023-04-06T10:08:47;13.00;99.90
14031;DHT22;7090;49.436;8.490;2023-04-06T10:11:15;13.10;99.90
14031;DHT22;7090;49.436;8.490;2023-04-06T10:13:41;12.80;99.90
14031;DHT22;7090;49.436;8.490;2023-04-06T10:16:08;13.00;99.90
14031;DHT22;7090;49.436;8.490;2023-04-06T10:18:35;12.40;99.90
14031;DHT22;7090;49.436;8.490;2023-04-06T10:21:09;12.60;99.90
14031;DHT22;7090;49.436;8.490;2023-04-06T10:23:41;12.50;99.90
14031;DHT22;7090;49.436;8.490;2023-04-06T10:26:13;12.90;99.90
14031;DHT22;7090;49.436;8.490;2023-04-06T10:28:41;12.40;99.90
14031;DHT22;7090;49.436;8.490;2023-04-06T10:31:07;12.60;99.90
14031;DHT22;7090;49.436;8.490;2023-04-06T10:33:33;12.90;99.90
14031;DHT22;7090;49.436;8.490;2023-04-06T10:36:20;13.10;99.90
14031;DHT22;7090;49.436;8.490;2023-04-06T10:42:06;12.80;99.90
14031;DHT22;7090;49.436;8.490;2023-04-06T10:44:42;12.90;99.90
14031;DHT22;7090;49.436;8.490;2023-04-06T10:47:16;13.00;99.90
14031;DHT22;7090;49.436;8.490;2023-04-06T10:49:43;13.50;99.90
14031;DHT22;7090;49.436;8.490;2023-04-06T10:52:08;13.30;99.90
14031;DHT22;7090;49.436;8.490;2023-04-06T10:54:42;13.50;99.90
14031;DHT22;7090;49.436;8.490;2023-04-06T10:57:09;13.20;99.90
14031;DHT22;7090;49.436;8.490;2023-04-06T10:59:35;13.80;99.90
14031;DHT22;7090;49.436;8.490;2023-04-06T11:02:01;13.90;99.90
14031;DHT22;7090;49.436;8.490;2023-04-06T11:04:26;13.50;99.90
14031;DHT22;7090;49.436;8.490;2023-04-06T11:06:52;13.40;99.90
14031;DHT22;7090;49.436;8.490;2023-04-06T11:09:26;13.40;99.90
14031;DHT22;7090;49.436;8.490;2023-04-06T11:11:52;13.80;99.90
14031;DHT22;7090;49.436;8.490;2023-04-06T11:14:18;13.80;99.90
14031;DHT22;7090;49.436;8.490;2023-04-06T11:16:46;13.70;99.90
14031;DHT22;7090;49.436;8.490;2023-04-06T11:19:13;13.90;99.90
14031;DHT22;7090;49.436;8.490;2023-04-06T11:21:41;14.00;99.90
14031;DHT22;7090;49.436;8.490;2023-04-06T11:24:12;13.40;99.90
14031;DHT22;7090;49.436;8.490;2023-04-06T11:26:43;13.40;99.90
14031;DHT22;7090;49.436;8.490;2023-04-06T11:29:11;13.80;99.90
14031;DHT22;7090;49.436;8.490;2023-04-06T11:31:47;14.20;99.90
14031;DHT22;7090;49.436;8.490;2023-04-06T11:34:19;14.00;1.00
14031;DHT22;7090;49.436;8.490;2023-04-06T11:36:47;13.90;99.90
14031;DHT22;7090;49.436;8.490;2023-04-06T11:39:17;13.90;99.90
14031;DHT22;7090;49.436;8.490;2023-04-06T11:41:51;13.90;99.90
14031;DHT22;7090;49.436;8.490;2023-04-06T11:44:32;13.60;99.90
14031;DHT22;7090;49.436;8.490;2023-04-06T11:47:00;13.70;99.90
14031;DHT22;7090;49.436;8.490;2023-04-06T11:49:33;13.50;99.90
14031;DHT22;7090;49.436;8.490;2023-04-06T11:52:00;13.60;99.90
14031;DHT22;7090;49.436;8.490;2023-04-06T11:54:38;13.60;99.90
14031;DHT22;7090;49.436;8.490;2023-04-06T11:57:05;14.00;99.90
14031;DHT22;7090;49.436;8.490;2023-04-06T11:59:31;13.90;99.90
14031;DHT22;7090;49.436;8.490;2023-04-06T12:01:57;13.60;99.90
14031;DHT22;7090;49.436;8.490;2023-04-06T12:04:23;13.50;99.90
14031;DHT22;7090;49.436;8.490;2023-04-06T12:06:49;13.80;99.90
14031;DHT22;7090;49.436;8.490;2023-04-06T12:09:18;13.80;99.90
14031;DHT22;7090;49.436;8.490;2023-04-06T12:11:44;13.80;99.90
14031;DHT22;7090;49.436;8.490;2023-04-06T12:14:10;13.70;99.90
14031;DHT22;7090;49.436;8.490;2023-04-06T12:16:36;14.00;99.90
14031;DHT22;7090;49.436;8.490;2023-04-06T12:19:02;13.90;99.90
14031;DHT22;7090;49.436;8.490;2023-04-06T12:21:28;13.60;99.90
14031;DHT22;7090;49.436;8.490;2023-04-06T12:23:54;14.10;99.90
14031;DHT22;7090;49.436;8.490;2023-04-06T12:26:21;14.10;99.90
14031;DHT22;7090;49.436;8.490;2023-04-06T12:28:47;14.30;99.90
14031;DHT22;7090;49.436;8.490;2023-04-06T12:31:16;14.30;98.30
14031;DHT22;7090;49.436;8.490;2023-04-06T12:33:42;14.00;99.90
14031;DHT22;7090;49.436;8.490;2023-04-06T12:36:15;14.50;99.90
14031;DHT22;7090;49.436;8.490;2023-04-06T12:38:45;14.50;91.10
14031;DHT22;7090;49.436;8.490;2023-04-06T12:41:11;14.20;99.90
14031;DHT22;7090;49.436;8.490;2023-04-06T12:43:39;14.00;99.90
14031;DHT22;7090;49.436;8.490;2023-04-06T12:49:27;14.80;99.90
14031;DHT22;7090;49.436;8.490;2023-04-06T12:51:52;14.80;41.20
14031;DHT22;7090;49.436;8.490;2023-04-06T12:54:18;15.00;44.60
14031;DHT22;7090;49.436;8.490;2023-04-06T12:56:43;14.90;1.00
14031;DHT22;7090;49.436;8.490;2023-04-06T12:59:09;15.00;1.00
14031;DHT22;7090;49.436;8.490;2023-04-06T13:01:35;14.90;18.20
14031;DHT22;7090;49.436;8.490;2023-04-06T13:04:00;14.90;1.00
14031;DHT22;7090;49.436;8.490;2023-04-06T13:06:26;15.10;1.00
14031;DHT22;7090;49.436;8.490;2023-04-06T13:08:53;15.30;1.00
14031;DHT22;7090;49.436;8.490;2023-04-06T13:11:18;15.10;1.00
14031;DHT22;7090;49.436;8.490;2023-04-06T13:13:47;15.20;1.00
14031;DHT22;7090;49.436;8.490;2023-04-06T13:16:12;14.80;1.00
14031;DHT22;7090;49.436;8.490;2023-04-06T13:18:38;14.90;1.00
14031;DHT22;7090;49.436;8.490;2023-04-06T13:21:05;14.90;1.00
14031;DHT22;7090;49.436;8.490;2023-04-06T13:23:31;14.80;29.90
14031;DHT22;7090;49.436;8.490;2023-04-06T13:26:01;15.10;13.00
14031;DHT22;7090;49.436;8.490;2023-04-06T13:28:28;15.40;39.40
14031;DHT22;7090;49.436;8.490;2023-04-06T13:30:55;14.70;17.70
14031;DHT22;7090;49.436;8.490;2023-04-06T13:33:21;14.70;1.00
14031;DHT22;7090;49.436;8.490;2023-04-06T13:35:47;14.70;1.00
14031;DHT22;7090;49.436;8.490;2023-04-06T13:38:13;14.60;20.80
14031;DHT22;7090;49.436;8.490;2023-04-06T13:40:40;14.80;24.40
14031;DHT22;7090;49.436;8.490;2023-04-06T13:43:06;14.90;1.00
14031;DHT22;7090;49.436;8.490;2023-04-06T13:45:32;14.60;1.00
14031;DHT22;7090;49.436;8.490;2023-04-06T13:47:58;14.60;1.00
14031;DHT22;7090;49.436;8.490;2023-04-06T13:50:26;14.30;1.00
14031;DHT22;7090;49.436;8.490;2023-04-06T13:52:52;14.20;1.00
14031;DHT22;7090;49.436;8.490;2023-04-06T13:55:17;14.20;5.40
14031;DHT22;7090;49.436;8.490;2023-04-06T13:57:43;14.10;3.60
14031;DHT22;7090;49.436;8.490;2023-04-06T14:00:09;14.10;1.00
14031;DHT22;7090;49.436;8.490;2023-04-06T14:02:36;14.40;1.00
14031;DHT22;7090;49.436;8.490;2023-04-06T14:05:02;14.50;1.00
14031;DHT22;7090;49.436;8.490;2023-04-06T14:07:28;14.30;1.00
14031;DHT22;7090;49.436;8.490;2023-04-06T14:09:54;14.30;1.00
14031;DHT22;7090;49.436;8.490;2023-04-06T14:12:20;14.20;1.00
14031;DHT22;7090;49.436;8.490;2023-04-06T14:14:45;14.00;1.00
14031;DHT22;7090;49.436;8.490;2023-04-06T14:17:11;14.10;1.00
14031;DHT22;7090;49.436;8.490;2023-04-06T14:19:37;14.10;1.00
14031;DHT22;7090;49.436;8.490;2023-04-06T14:22:03;14.20;1.00
14031;DHT22;7090;49.436;8.490;2023-04-06T14:24:29;14.30;1.00
14031;DHT22;7090;49.436;8.490;2023-04-06T14:26:55;14.00;1.00
14031;DHT22;7090;49.436;8.490;2023-04-06T14:29:22;14.10;1.00
14031;DHT22;7090;49.436;8.490;2023-04-06T14:31:48;14.20;1.00
14031;DHT22;7090;49.436;8.490;2023-04-06T14:37:29;14.40;1.00
14031;DHT22;7090;49.436;8.490;2023-04-06T14:39:55;14.40;1.00
14031;DHT22;7090;49.436;8.490;2023-04-06T14:42:21;14.30;1.00
14031;DHT22;7090;49.436;8.490;2023-04-06T14:44:47;14.10;1.00
14031;DHT22;7090;49.436;8.490;2023-04-06T14:47:14;14.20;1.00
14031;DHT22;7090;49.436;8.490;2023-04-06T14:49:46;14.30;1.00
14031;DHT22;7090;49.436;8.490;2023-04-06T14:52:11;14.30;1.00
14031;DHT22;7090;49.436;8.490;2023-04-06T14:54:37;14.30;1.00
14031;DHT22;7090;49.436;8.490;2023-04-06T14:57:02;14.50;1.00
14031;DHT22;7090;49.436;8.490;2023-04-06T14:59:28;14.50;1.00
14031;DHT22;7090;49.436;8.490;2023-04-06T15:01:54;14.30;1.00
14031;DHT22;7090;49.436;8.490;2023-04-06T15:04:19;14.30;1.00
14031;DHT22;7090;49.436;8.490;2023-04-06T15:06:45;14.20;1.00
14031;DHT22;7090;49.436;8.490;2023-04-06T15:09:10;14.30;1.00
14031;DHT22;7090;49.436;8.490;2023-04-06T15:11:36;14.20;1.00
14031;DHT22;7090;49.436;8.490;2023-04-06T15:14:02;14.20;1.00
14031;DHT22;7090;49.436;8.490;2023-04-06T15:16:27;14.20;1.00
14031;DHT22;7090;49.436;8.490;2023-04-06T15:18:58;14.20;1.00
14031;DHT22;7090;49.436;8.490;2023-04-06T15:21:23;14.20;1.00
14031;DHT22;7090;49.436;8.490;2023-04-06T15:23:50;14.20;1.00
14031;DHT22;7090;49.436;8.490;2023-04-06T15:26:16;14.20;1.00
14031;DHT22;7090;49.436;8.490;2023-04-06T15:28:42;14.10;1.00
14031;DHT22;7090;49.436;8.490;2023-04-06T15:31:15;14.10;1.00
14031;DHT22;7090;49.436;8.490;2023-04-06T15:33:40;14.20;1.00
14031;DHT22;7090;49.436;8.490;2023-04-06T15:36:16;14.00;1.00
14031;DHT22;7090;49.436;8.490;2023-04-06T15:38:46;14.00;1.00
14031;DHT22;7090;49.436;8.490;2023-04-06T15:41:13;14.10;1.00
14031;DHT22;7090;49.436;8.490;2023-04-06T15:43:42;14.10;1.00
14031;DHT22;7090;49.436;8.490;2023-04-06T15:46:07;14.10;1.00
14031;DHT22;7090;49.436;8.490;2023-04-06T15:48:33;14.10;1.00
14031;DHT22;7090;49.436;8.490;2023-04-06T15:50:59;14.20;1.00
14031;DHT22;7090;49.436;8.490;2023-04-06T15:53:25;14.00;1.00
14031;DHT22;7090;49.436;8.490;2023-04-06T15:55:58;14.10;1.00
14031;DHT22;7090;49.436;8.490;2023-04-06T15:58:24;14.20;1.00
14031;DHT22;7090;49.436;8.490;2023-04-06T16:00:49;14.00;1.00
14031;DHT22;7090;49.436;8.490;2023-04-06T16:03:15;14.10;1.00
14031;DHT22;7090;49.436;8.490;2023-04-06T16:05:40;14.00;1.00
14031;DHT22;7090;49.436;8.490;2023-04-06T16:08:07;14.10;1.00
14031;DHT22;7090;49.436;8.490;2023-04-06T16:10:32;14.10;1.00
14031;DHT22;7090;49.436;8.490;2023-04-06T16:12:58;14.10;1.00
14031;DHT22;7090;49.436;8.490;2023-04-06T16:15:23;13.90;1.00